createdAt,value
2023-01-09T00:00:53.479Z,0.60
2023-01-09T00:03:19.970Z,0.50
2023-01-09T00:05:46.473Z,0.40
2023-01-09T00:08:12.936Z,0.70
2023-01-09T00:10:39.742Z,0.40
2023-01-09T00:13:06.378Z,0.57
2023-01-09T00:15:32.950Z,0.40
2023-01-09T00:18:02.242Z,0.98
2023-01-09T00:20:30.996Z,0.60
2023-01-09T00:22:57.549Z,0.70
2023-01-09T00:25:24.137Z,0.40
2023-01-09T00:27:50.623Z,0.40
2023-01-09T00:30:17.237Z,0.40
2023-01-09T00:32:43.687Z,0.63
2023-01-09T00:35:15.087Z,0.30
2023-01-09T00:37:41.604Z,0.50
2023-01-09T00:40:08.659Z,0.60
2023-01-09T00:42:36.543Z,0.40
2023-01-09T00:45:08.381Z,0.50
2023-01-09T00:47:45.740Z,0.88
2023-01-09T00:50:16.842Z,0.60
2023-01-09T00:52:45.678Z,0.45
2023-01-09T00:55:13.837Z,0.38
2023-01-09T00:57:40.569Z,0.40
2023-01-09T01:00:08.873Z,0.45
2023-01-09T01:02:35.419Z,0.40
2023-01-09T01:05:24.120Z,0.60
2023-01-09T01:07:50.740Z,0.55
2023-01-09T01:10:20.490Z,0.90
2023-01-09T01:12:48.743Z,0.55
2023-01-09T01:15:16.713Z,0.47
2023-01-09T01:17:43.691Z,0.88
2023-01-09T01:20:14.148Z,0.60
2023-01-09T01:22:43.917Z,1.13
2023-01-09T01:25:12.799Z,1.00
2023-01-09T01:27:39.790Z,0.83
2023-01-09T01:30:08.454Z,0.80
2023-01-09T01:32:35.027Z,1.00
2023-01-09T01:35:01.576Z,1.07
2023-01-09T01:37:28.069Z,1.07
2023-01-09T01:39:54.565Z,1.03
2023-01-09T01:42:21.122Z,1.17
2023-01-09T01:45:09.397Z,1.80
2023-01-09T01:47:47.911Z,1.00
2023-01-09T01:50:23.315Z,0.90
2023-01-09T01:53:00.464Z,1.47
2023-01-09T01:55:27.106Z,1.23
2023-01-09T01:57:59.668Z,1.10
2023-01-09T02:00:33.743Z,1.17
2023-01-09T02:03:02.144Z,0.87
2023-01-09T02:05:29.455Z,1.07
2023-01-09T02:07:55.877Z,1.23
2023-01-09T02:10:23.713Z,1.33
2023-01-09T02:12:50.743Z,0.93
2023-01-09T02:15:19.559Z,1.00
2023-01-09T02:18:07.694Z,0.63
2023-01-09T02:20:37.152Z,0.90
2023-01-09T02:23:03.501Z,1.03
2023-01-09T02:25:51.017Z,0.80
2023-01-09T02:28:54.521Z,1.17
2023-01-09T02:31:35.474Z,0.90
2023-01-09T02:34:15.164Z,1.00
2023-01-09T02:36:59.321Z,0.67
2023-01-09T02:39:51.663Z,0.83
2023-01-09T02:42:22.289Z,0.73
2023-01-09T02:44:48.773Z,1.03
2023-01-09T02:47:15.205Z,1.13
2023-01-09T02:49:51.615Z,1.10
2023-01-09T02:52:50.922Z,0.80
2023-01-09T02:55:24.443Z,1.00
2023-01-09T02:58:12.404Z,0.77
2023-01-09T03:01:11.225Z,0.80
2023-01-09T03:03:50.006Z,0.97
2023-01-09T03:06:42.098Z,0.80
2023-01-09T03:09:15.156Z,1.10
2023-01-09T03:11:50.260Z,1.27
2023-01-09T03:14:21.524Z,1.20
2023-01-09T03:16:52.913Z,1.20
2023-01-09T03:19:23.873Z,0.70
2023-01-09T03:21:51.268Z,0.83
2023-01-09T03:24:20.229Z,1.03
2023-01-09T03:26:47.000Z,0.60
2023-01-09T03:29:13.498Z,0.80
2023-01-09T03:31:42.779Z,1.23
2023-01-09T03:34:09.297Z,1.00
2023-01-09T03:36:35.847Z,0.97
2023-01-09T03:39:02.333Z,1.20
2023-01-09T03:41:28.820Z,0.93
2023-01-09T03:43:55.304Z,2.33
2023-01-09T03:46:21.886Z,1.07
2023-01-09T03:48:48.390Z,1.83
2023-01-09T03:51:14.844Z,1.40
2023-01-09T03:53:44.365Z,1.50
2023-01-09T03:56:12.401Z,1.30
2023-01-09T03:58:38.898Z,1.53
2023-01-09T04:01:09.475Z,2.17
2023-01-09T04:03:36.365Z,1.13
2023-01-09T04:06:02.997Z,1.20
2023-01-09T04:08:30.630Z,2.67
2023-01-09T04:10:57.278Z,1.70
2023-01-09T04:13:23.751Z,2.47
2023-01-09T04:15:50.253Z,1.50
2023-01-09T04:18:16.890Z,1.50
2023-01-09T04:20:46.605Z,2.63
2023-01-09T04:23:13.063Z,1.33
2023-01-09T04:25:39.519Z,1.27
2023-01-09T04:28:06.691Z,2.20
2023-01-09T04:30:33.238Z,2.00
2023-01-09T04:32:59.675Z,1.70
2023-01-09T04:35:26.153Z,2.00
2023-01-09T04:37:52.669Z,1.60
2023-01-09T04:40:19.487Z,2.03
2023-01-09T04:42:46.172Z,1.73
2023-01-09T04:45:15.366Z,2.00
2023-01-09T04:47:41.823Z,1.37
2023-01-09T04:50:09.525Z,1.70
2023-01-09T04:52:38.230Z,1.27
2023-01-09T04:55:06.213Z,1.40
2023-01-09T04:57:32.691Z,1.60
2023-01-09T04:59:59.162Z,1.90
2023-01-09T05:02:25.664Z,1.47
2023-01-09T05:04:52.124Z,1.43
2023-01-09T05:07:18.676Z,2.30
2023-01-09T05:09:48.085Z,1.93
2023-01-09T05:12:14.651Z,2.33
2023-01-09T05:14:41.085Z,2.20
2023-01-09T05:17:07.576Z,2.03
2023-01-09T05:19:34.588Z,2.00
2023-01-09T05:22:01.113Z,1.97
2023-01-09T05:24:27.548Z,1.43
2023-01-09T05:26:54.085Z,2.50
2023-01-09T05:29:20.678Z,1.60
2023-01-09T05:31:50.251Z,2.00
2023-01-09T05:34:20.324Z,2.17
2023-01-09T05:36:49.666Z,2.43
2023-01-09T05:39:18.282Z,1.80
2023-01-09T05:41:44.763Z,1.90
2023-01-09T05:44:11.221Z,2.90
2023-01-09T05:46:37.730Z,1.93
2023-01-09T05:49:04.312Z,2.60
2023-01-09T05:51:31.885Z,2.40
2023-01-09T05:53:59.418Z,1.70
2023-01-09T05:56:25.929Z,1.93
2023-01-09T05:58:52.370Z,1.73
2023-01-09T06:01:18.964Z,1.93
2023-01-09T06:03:45.459Z,2.10
2023-01-09T06:06:11.907Z,2.37
2023-01-09T06:08:38.335Z,1.87
2023-01-09T06:11:05.002Z,1.97
2023-01-09T06:13:31.415Z,2.33
2023-01-09T06:15:57.942Z,2.57
2023-01-09T06:18:24.409Z,2.27
2023-01-09T06:20:50.952Z,2.37
2023-01-09T06:23:17.384Z,2.63
2023-01-09T06:25:43.850Z,1.73
2023-01-09T06:28:10.347Z,2.23
2023-01-09T06:30:36.837Z,1.70
2023-01-09T06:33:03.373Z,1.43
2023-01-09T06:35:29.849Z,1.10
2023-01-09T06:37:57.092Z,0.93
2023-01-09T06:40:23.587Z,0.90
2023-01-09T06:42:50.360Z,1.47
2023-01-09T06:45:17.047Z,1.30
2023-01-09T06:47:43.551Z,1.07
2023-01-09T06:50:11.112Z,1.10
2023-01-09T06:52:37.808Z,1.00
2023-01-09T06:55:04.874Z,0.90
2023-01-09T06:57:31.514Z,1.20
2023-01-09T06:59:58.038Z,0.70
2023-01-09T07:02:24.639Z,0.73
2023-01-09T07:04:58.564Z,0.90
2023-01-09T07:07:25.057Z,0.50
2023-01-09T07:09:52.197Z,1.43
2023-01-09T07:12:18.750Z,0.80
2023-01-09T07:14:45.256Z,0.93
2023-01-09T07:17:13.608Z,0.90
2023-01-09T07:19:40.256Z,0.87
2023-01-09T07:22:06.736Z,0.73
2023-01-09T07:24:33.158Z,1.73
2023-01-09T07:26:59.641Z,0.80
2023-01-09T07:29:26.139Z,1.07
2023-01-09T07:31:56.575Z,1.60
2023-01-09T07:34:26.198Z,1.30
2023-01-09T07:36:55.457Z,1.53
2023-01-09T07:39:24.415Z,0.70
2023-01-09T07:41:50.927Z,0.80
2023-01-09T07:44:17.393Z,1.13
2023-01-09T07:46:43.879Z,1.00
2023-01-09T07:49:10.414Z,0.80
2023-01-09T07:51:39.143Z,1.00
2023-01-09T07:54:05.753Z,0.80
2023-01-09T07:56:32.254Z,0.93
2023-01-09T07:58:58.675Z,0.93
2023-01-09T08:01:25.299Z,1.00
2023-01-09T08:03:59.040Z,1.10
2023-01-09T08:06:25.531Z,0.95
2023-01-09T08:08:53.614Z,1.20
2023-01-09T08:11:20.148Z,1.00
2023-01-09T08:13:46.635Z,1.42
2023-01-09T08:16:13.183Z,1.05
2023-01-09T08:18:39.674Z,1.27
2023-01-09T08:21:06.389Z,0.90
2023-01-09T08:23:32.916Z,1.03
2023-01-09T08:25:59.787Z,1.45
2023-01-09T08:28:26.237Z,0.83
2023-01-09T08:30:56.237Z,1.30
2023-01-09T08:33:29.091Z,1.00
2023-01-09T08:35:55.921Z,1.07
2023-01-09T08:38:24.569Z,1.10
2023-01-09T08:40:51.025Z,1.20
2023-01-09T08:43:36.035Z,1.10
2023-01-09T08:46:34.910Z,0.80
2023-01-09T08:49:01.460Z,1.73
2023-01-09T08:51:28.046Z,1.00
2023-01-09T08:53:54.576Z,1.35
2023-01-09T08:56:21.055Z,1.03
2023-01-09T08:58:47.612Z,0.93
2023-01-09T09:01:14.197Z,1.27
2023-01-09T09:03:40.724Z,1.57
2023-01-09T09:06:07.521Z,1.50
2023-01-09T09:08:36.522Z,1.30
2023-01-09T09:11:03.093Z,1.33
2023-01-09T09:13:29.816Z,1.37
2023-01-09T09:15:56.390Z,1.35
2023-01-09T09:18:26.413Z,1.20
2023-01-09T09:20:56.324Z,0.80
2023-01-09T09:23:25.868Z,2.23
2023-01-09T09:25:55.132Z,1.40
2023-01-09T09:28:24.204Z,1.03
2023-01-09T09:30:51.066Z,0.97
2023-01-09T09:33:17.990Z,1.13
2023-01-09T09:35:44.856Z,0.97
2023-01-09T09:38:13.485Z,0.90
2023-01-09T09:41:01.902Z,1.50
2023-01-09T09:43:56.355Z,1.23
2023-01-09T09:46:41.869Z,1.70
2023-01-09T09:49:40.349Z,1.20
2023-01-09T09:52:47.203Z,1.83
2023-01-09T09:55:37.128Z,1.93
2023-01-09T09:58:11.511Z,1.50
2023-01-09T10:00:38.411Z,0.80
2023-01-09T10:03:16.470Z,0.90
2023-01-09T10:05:48.904Z,0.50
2023-01-09T10:08:34.808Z,1.00
2023-01-09T10:11:01.640Z,0.57
2023-01-09T10:13:47.117Z,0.60
2023-01-09T10:16:32.225Z,0.43
2023-01-09T10:19:04.604Z,0.50
2023-01-09T10:21:46.514Z,0.40
2023-01-09T10:24:42.339Z,0.40
2023-01-09T10:27:21.799Z,0.80
2023-01-09T10:30:25.632Z,0.60
2023-01-09T10:33:04.031Z,0.83
2023-01-09T10:35:47.337Z,0.57
2023-01-09T10:38:20.357Z,0.70
2023-01-09T10:41:10.511Z,0.73
2023-01-09T10:43:44.636Z,0.70
2023-01-09T10:46:26.128Z,0.87
2023-01-09T10:48:59.697Z,0.60
2023-01-09T10:51:35.989Z,0.40
2023-01-09T10:54:04.992Z,0.50
2023-01-09T10:56:38.795Z,1.10
2023-01-09T10:59:05.777Z,0.53
2023-01-09T11:01:34.783Z,0.57
2023-01-09T11:04:02.356Z,0.75
2023-01-09T11:06:46.695Z,0.43
2023-01-09T11:09:15.080Z,1.50
2023-01-09T11:11:41.812Z,0.50
2023-01-09T11:14:28.326Z,0.80
2023-01-09T11:16:59.678Z,0.90
2023-01-09T11:19:26.943Z,1.13
2023-01-09T11:22:16.200Z,0.88
2023-01-09T11:24:43.120Z,0.83
2023-01-09T11:27:25.033Z,1.53
2023-01-09T11:30:20.078Z,1.05
2023-01-09T11:32:47.797Z,1.03
2023-01-09T11:35:21.728Z,1.70
2023-01-09T11:37:56.546Z,1.10
2023-01-09T11:40:30.624Z,0.90
2023-01-09T11:43:05.963Z,0.90
2023-01-09T11:45:35.041Z,1.13
2023-01-09T11:48:03.874Z,1.83
2023-01-09T11:50:32.079Z,1.10
2023-01-09T11:53:12.882Z,0.98
2023-01-09T11:55:42.868Z,1.63
2023-01-09T11:58:21.139Z,1.63
2023-01-09T12:00:55.064Z,1.37
2023-01-09T12:03:59.078Z,1.63
2023-01-09T12:06:40.719Z,1.93
2023-01-09T12:09:10.660Z,1.40
2023-01-09T12:11:48.100Z,1.33
2023-01-09T12:14:23.696Z,1.20
2023-01-09T12:17:03.923Z,1.13
2023-01-09T12:20:07.049Z,1.42
2023-01-09T12:22:54.842Z,1.30
2023-01-09T12:25:44.607Z,1.30
2023-01-09T12:28:39.670Z,1.57
2023-01-09T12:31:39.913Z,1.70
2023-01-09T12:34:37.508Z,0.90
2023-01-09T12:37:45.412Z,3.10
2023-01-09T12:40:33.233Z,1.03
2023-01-09T12:43:16.465Z,1.13
2023-01-09T12:46:11.038Z,1.08
2023-01-09T12:49:22.523Z,2.20
2023-01-09T12:51:55.237Z,1.35
2023-01-09T12:54:42.857Z,1.10
2023-01-09T12:57:47.357Z,0.93
2023-01-09T13:00:35.588Z,1.55
2023-01-09T13:03:13.204Z,1.25
2023-01-09T13:05:49.843Z,1.77
2023-01-09T13:08:30.219Z,1.20
2023-01-09T13:11:20.017Z,1.52
2023-01-09T13:13:59.874Z,0.95
2023-01-09T13:16:41.572Z,1.33
2023-01-09T13:19:29.094Z,1.77
2023-01-09T13:21:58.490Z,0.68
2023-01-09T13:24:31.193Z,0.95
2023-01-09T13:27:05.441Z,1.08
2023-01-09T13:29:37.479Z,0.98
2023-01-09T13:32:21.053Z,1.63
2023-01-09T13:34:51.724Z,0.95
2023-01-09T13:37:23.578Z,1.30
2023-01-09T13:40:06.829Z,0.80
2023-01-09T13:42:36.734Z,1.27
2023-01-09T13:45:17.352Z,0.98
2023-01-09T13:47:44.623Z,0.88
2023-01-09T13:50:11.092Z,1.25
2023-01-09T13:52:37.612Z,0.95
2023-01-09T13:55:16.204Z,0.80
2023-01-09T13:57:45.632Z,1.00
2023-01-09T14:00:12.018Z,1.00
2023-01-09T14:02:40.997Z,0.88
2023-01-09T14:05:13.330Z,0.93
2023-01-09T14:07:42.487Z,1.15
2023-01-09T14:10:35.375Z,0.80
2023-01-09T14:13:09.005Z,1.05
2023-01-09T14:15:40.051Z,1.05
2023-01-09T14:18:15.717Z,1.30
2023-01-09T14:20:46.656Z,0.98
2023-01-09T14:23:51.142Z,1.15
2023-01-09T14:26:42.349Z,1.73
2023-01-09T14:29:36.410Z,1.40
2023-01-09T14:32:20.895Z,1.02
2023-01-09T14:35:20.218Z,1.50
2023-01-09T14:38:03.911Z,1.15
2023-01-09T14:40:32.393Z,1.23
2023-01-09T14:43:12.036Z,1.88
2023-01-09T14:45:41.292Z,1.55
2023-01-09T14:48:12.177Z,1.30
2023-01-09T14:50:51.259Z,1.20
2023-01-09T14:53:31.380Z,1.52
2023-01-09T14:56:06.059Z,1.33
2023-01-09T14:58:34.385Z,1.05
2023-01-09T15:01:00.848Z,1.33
2023-01-09T15:03:40.830Z,1.40
2023-01-09T15:06:15.379Z,1.40
2023-01-09T15:08:45.180Z,1.05
2023-01-09T15:11:13.380Z,1.52
2023-01-09T15:13:47.755Z,1.75
2023-01-09T15:16:21.559Z,1.38
2023-01-09T15:19:05.133Z,0.93
2023-01-09T15:21:32.101Z,1.35
2023-01-09T15:24:22.933Z,2.05
2023-01-09T15:26:54.711Z,2.35
2023-01-09T15:29:21.610Z,1.05
2023-01-09T15:31:52.964Z,0.93
2023-01-09T15:34:22.326Z,1.30
2023-01-09T15:36:50.407Z,1.20
2023-01-09T15:39:25.367Z,1.63
2023-01-09T15:42:10.630Z,0.83
2023-01-09T15:44:40.526Z,1.03
2023-01-09T15:47:13.121Z,1.20
2023-01-09T15:49:39.771Z,1.07
2023-01-09T15:52:11.805Z,1.42
2023-01-09T15:54:40.011Z,0.80
2023-01-09T15:57:24.677Z,1.17
2023-01-09T15:59:52.092Z,1.20
2023-01-09T16:02:39.699Z,1.10
2023-01-09T16:05:16.373Z,1.30
2023-01-09T16:07:50.904Z,1.60
2023-01-09T16:10:32.401Z,1.20
2023-01-09T16:13:01.642Z,1.03
2023-01-09T16:15:34.961Z,1.20
2023-01-09T16:18:22.632Z,1.30
2023-01-09T16:20:51.197Z,1.63
2023-01-09T16:23:32.473Z,0.90
2023-01-09T16:26:13.992Z,1.20
2023-01-09T16:28:43.448Z,1.00
2023-01-09T16:31:29.023Z,1.63
2023-01-09T16:34:06.870Z,1.00
2023-01-09T16:36:36.937Z,1.45
2023-01-09T16:39:04.449Z,1.85
2023-01-09T16:41:49.968Z,1.10
2023-01-09T16:44:19.056Z,1.20
2023-01-09T16:46:45.616Z,1.30
2023-01-09T16:49:19.181Z,1.10
2023-01-09T16:51:46.887Z,1.30
2023-01-09T16:54:14.199Z,1.03
2023-01-09T16:56:43.009Z,1.20
2023-01-09T16:59:14.329Z,1.30
2023-01-09T17:01:41.661Z,1.20
2023-01-09T17:04:12.018Z,1.77
2023-01-09T17:06:39.314Z,1.10
2023-01-09T17:09:06.389Z,1.70
2023-01-09T17:11:34.925Z,1.57
2023-01-09T17:14:02.127Z,1.20
2023-01-09T17:16:29.821Z,1.57
2023-01-09T17:18:56.681Z,1.40
2023-01-09T17:24:26.512Z,1.37
2023-01-09T17:27:11.495Z,1.40
2023-01-09T17:29:38.039Z,1.50
2023-01-09T17:32:09.249Z,1.65
2023-01-09T17:34:35.929Z,1.80
2023-01-09T17:37:04.367Z,1.50
2023-01-09T17:39:31.156Z,1.60
2023-01-09T17:41:58.949Z,1.87
2023-01-09T17:44:26.421Z,1.83
2023-01-09T17:46:52.903Z,1.40
2023-01-09T17:49:21.599Z,1.30
2023-01-09T17:51:48.735Z,1.43
2023-01-09T17:54:15.657Z,1.20
2023-01-09T17:56:46.429Z,2.33
2023-01-09T17:59:15.183Z,1.43
2023-01-09T18:01:43.097Z,1.47
2023-01-09T18:04:10.681Z,1.53
2023-01-09T18:06:38.609Z,1.73
2023-01-09T18:09:10.172Z,1.87
2023-01-09T18:11:49.219Z,2.17
2023-01-09T18:14:20.768Z,1.40
2023-01-09T18:16:47.336Z,1.60
2023-01-09T18:19:13.911Z,1.30
2023-01-09T18:21:40.429Z,1.03
2023-01-09T18:24:10.167Z,1.33
2023-01-09T18:26:39.700Z,2.20
2023-01-09T18:29:07.388Z,1.60
2023-01-09T18:31:33.852Z,1.73
2023-01-09T18:34:07.264Z,3.30
2023-01-09T18:36:33.904Z,1.40
2023-01-09T18:39:02.865Z,1.27
2023-01-09T18:41:30.255Z,2.10
2023-01-09T18:43:59.438Z,2.10
2023-01-09T18:46:30.518Z,1.70
2023-01-09T18:48:59.149Z,1.40
2023-01-09T18:51:26.724Z,1.73
2023-01-09T18:53:56.623Z,1.53
2023-01-09T18:56:24.749Z,1.20
2023-01-09T18:58:56.551Z,1.60
2023-01-09T19:01:23.822Z,1.03
2023-01-09T19:03:51.799Z,1.10
2023-01-09T19:06:18.346Z,1.23
2023-01-09T19:08:45.236Z,1.13
2023-01-09T19:11:11.776Z,0.90
2023-01-09T19:13:41.345Z,0.70
2023-01-09T19:16:10.881Z,1.20
2023-01-09T19:18:42.909Z,0.90
2023-01-09T19:21:15.078Z,0.90
2023-01-09T19:23:43.531Z,0.70
2023-01-09T19:26:20.914Z,1.13
2023-01-09T19:28:48.106Z,0.60
2023-01-09T19:31:15.183Z,1.10
2023-01-09T19:33:44.583Z,0.80
2023-01-09T19:36:11.542Z,0.70
2023-01-09T19:38:41.005Z,0.90
2023-01-09T19:41:18.310Z,0.70
2023-01-09T19:43:45.794Z,0.77
2023-01-09T19:46:17.058Z,0.60
2023-01-09T19:48:43.557Z,0.77
2023-01-09T19:51:11.347Z,1.00
2023-01-09T19:53:39.362Z,0.50
2023-01-09T19:56:28.406Z,0.80
2023-01-09T19:59:00.023Z,1.03
2023-01-09T20:01:32.606Z,0.63
2023-01-09T20:04:09.210Z,1.27
2023-01-09T20:06:39.594Z,0.90
2023-01-09T20:09:10.947Z,1.10
2023-01-09T20:11:41.304Z,1.70
2023-01-09T20:14:11.620Z,0.93
2023-01-09T20:16:43.000Z,1.37
2023-01-09T20:19:13.167Z,2.10
2023-01-09T20:21:39.903Z,1.97
2023-01-09T20:24:09.750Z,1.63
2023-01-09T20:26:39.235Z,3.37
2023-01-09T20:29:05.744Z,2.83
2023-01-09T20:31:32.996Z,3.20
2023-01-09T20:34:00.281Z,2.00
2023-01-09T20:36:30.921Z,1.50
2023-01-09T20:39:03.291Z,1.50
2023-01-09T20:41:31.261Z,2.90
2023-01-09T20:44:04.941Z,1.57
2023-01-09T20:46:43.489Z,1.73
2023-01-09T20:49:12.319Z,1.87
2023-01-09T20:51:47.355Z,1.90
2023-01-09T20:54:14.924Z,1.30
2023-01-09T20:56:41.978Z,2.13
2023-01-09T20:59:14.250Z,1.87
2023-01-09T21:01:40.796Z,1.00
2023-01-09T21:04:10.019Z,0.50
2023-01-09T21:06:36.617Z,0.70
2023-01-09T21:09:04.895Z,0.83
2023-01-09T21:11:31.498Z,0.90
2023-01-09T21:13:57.962Z,1.57
2023-01-09T21:16:25.060Z,0.70
2023-01-09T21:18:53.754Z,0.70
2023-01-09T21:21:23.437Z,1.57
2023-01-09T21:23:54.508Z,1.63
2023-01-09T21:26:24.433Z,1.90
2023-01-09T21:28:54.990Z,1.70
2023-01-09T21:31:34.016Z,1.30
2023-01-09T21:34:03.781Z,1.30
2023-01-09T21:36:30.704Z,2.13
2023-01-09T21:38:58.619Z,1.47
2023-01-09T21:41:45.491Z,1.10
2023-01-09T21:44:33.519Z,2.10
2023-01-09T21:47:01.474Z,1.10
2023-01-09T21:49:31.111Z,1.10
2023-01-09T21:51:57.971Z,1.20
2023-01-09T21:54:24.757Z,0.80
2023-01-09T21:56:54.669Z,0.80
2023-01-09T21:59:21.156Z,1.00
2023-01-09T22:01:49.159Z,0.73
2023-01-09T22:04:17.689Z,0.80
2023-01-09T22:06:44.685Z,0.60
2023-01-09T22:09:14.946Z,0.97
2023-01-09T22:11:44.938Z,0.90
2023-01-09T22:14:17.414Z,0.90
2023-01-09T22:16:47.680Z,1.47
2023-01-09T22:19:17.351Z,1.00
2023-01-09T22:21:44.147Z,1.17
2023-01-09T22:24:16.257Z,1.10
2023-01-09T22:26:44.159Z,0.97
2023-01-09T22:29:13.854Z,1.13
2023-01-09T22:31:42.903Z,1.17
2023-01-09T22:34:15.088Z,1.30
2023-01-09T22:36:46.039Z,1.00
2023-01-09T22:39:16.089Z,0.80
2023-01-09T22:41:49.781Z,1.10
2023-01-09T22:44:16.278Z,1.10
2023-01-09T22:46:45.864Z,1.53
2023-01-09T22:49:14.666Z,1.47
2023-01-09T22:51:41.134Z,1.83
2023-01-09T22:54:08.590Z,1.67
2023-01-09T22:56:35.195Z,1.70
2023-01-09T22:59:01.700Z,1.63
2023-01-09T23:01:29.136Z,1.30
2023-01-09T23:03:55.692Z,1.13
2023-01-09T23:06:23.581Z,2.73
2023-01-09T23:08:51.078Z,1.87
2023-01-09T23:11:46.028Z,2.83
2023-01-09T23:14:13.467Z,1.57
2023-01-09T23:16:40.428Z,1.40
2023-01-09T23:19:08.954Z,2.23
2023-01-09T23:21:36.104Z,1.67
2023-01-09T23:24:02.577Z,2.27
2023-01-09T23:26:29.097Z,1.33
2023-01-09T23:28:55.532Z,1.67
2023-01-09T23:31:22.064Z,2.43
2023-01-09T23:33:48.571Z,1.67
2023-01-09T23:36:17.963Z,1.90
2023-01-09T23:38:45.508Z,1.33
2023-01-09T23:41:11.988Z,2.23
2023-01-09T23:43:38.467Z,1.60
2023-01-09T23:46:05.078Z,2.97
2023-01-09T23:48:31.616Z,3.77
2023-01-09T23:50:58.119Z,4.23
2023-01-09T23:53:24.757Z,3.00
2023-01-09T23:55:54.956Z,3.93
2023-01-09T23:58:21.751Z,2.83
